Time;durP1;ratioP1;P1;durP2;ratioP2;P2;SDS_P1;SDS_P2;PMS_P1;PMS_P2;Temp;Humidity;BMP_temperature;BMP_pressure;BME280_temperature;BME280_humidity;BME280_pressure;Samples;Min_cycle;Max_cycle;Signal;HPM_P1;HPM_P2
2022/12/31 00:01:06;;;;;;;21.23;6.18;;;10.60;99.90;;;;;;5133107;27;20167;-48
2022/12/31 00:03:33;;;;;;;15.70;6.10;;;10.70;99.90;;;;;;5118046;27;20198;-49
2022/12/31 00:05:58;;;;;;;24.50;6.93;;;10.50;99.90;;;;;;5133033;27;20487;-48
2022/12/31 00:08:24;;;;;;;27.88;6.18;;;10.60;99.90;;;;;;5116879;27;20058;-50
2022/12/31 00:10:50;;;;;;;20.02;6.68;;;10.70;99.90;;;;;;5119492;27;20046;-47
2022/12/31 00:13:16;;;;;;;22.65;6.20;;;10.60;99.90;;;;;;5136790;27;20055;-51
2022/12/31 00:15:42;;;;;;;22.80;6.28;;;10.60;99.90;;;;;;5119076;27;20133;-49
2022/12/31 00:18:08;;;;;;;16.60;5.05;;;10.60;99.90;;;;;;5126857;27;20054;-50
2022/12/31 00:20:38;;;;;;;21.00;6.13;;;10.70;99.90;;;;;;5119762;27;20055;-47
2022/12/31 00:23:04;;;;;;;28.10;6.60;;;10.80;99.90;;;;;;5098039;27;20081;-47
2022/12/31 00:25:29;;;;;;;23.52;5.85;;;10.80;99.90;;;;;;5117860;27;20265;-46
2022/12/31 00:27:55;;;;;;;21.33;6.68;;;10.80;99.90;;;;;;5127346;27;20154;-51
2022/12/31 00:30:21;;;;;;;27.45;7.00;;;10.70;99.90;;;;;;5121277;27;20047;-49
2022/12/31 00:32:46;;;;;;;24.58;7.68;;;10.70;99.90;;;;;;5136727;27;20047;-50
2022/12/31 00:35:12;;;;;;;26.33;7.57;;;10.70;99.90;;;;;;5120611;27;20073;-49
2022/12/31 00:37:38;;;;;;;20.20;6.90;;;10.60;99.90;;;;;;5126921;27;20100;-51
2022/12/31 00:40:04;;;;;;;19.48;6.25;;;10.60;99.90;;;;;;5112824;27;20042;-48
2022/12/31 00:42:30;;;;;;;26.90;7.38;;;10.60;99.90;;;;;;5111698;27;20502;-50
2022/12/31 00:44:55;;;;;;;21.90;5.90;;;10.70;99.90;;;;;;5134646;27;20065;-50
2022/12/31 00:47:23;;;;;;;23.98;6.75;;;10.70;99.90;;;;;;5135420;27;20051;-52
2022/12/31 00:49:49;;;;;;;22.88;7.63;;;10.50;99.90;;;;;;5122003;27;20047;-49
2022/12/31 00:52:15;;;;;;;17.77;6.30;;;10.70;99.90;;;;;;5136571;27;20072;-49
2022/12/31 00:54:41;;;;;;;18.63;6.95;;;10.60;99.90;;;;;;5121223;27;20499;-50
2022/12/31 00:57:07;;;;;;;21.83;7.13;;;10.70;99.90;;;;;;5120359;27;20134;-48
2022/12/31 00:59:32;;;;;;;17.30;6.82;;;10.60;99.90;;;;;;5118991;27;20043;-50
2022/12/31 01:01:58;;;;;;;19.92;7.55;;;10.60;99.90;;;;;;5126150;27;20122;-50
2022/12/31 01:04:23;;;;;;;20.25;7.57;;;10.50;99.90;;;;;;5130881;27;20050;-49
2022/12/31 01:06:49;;;;;;;21.05;8.27;;;10.70;99.90;;;;;;5135219;27;20081;-49
2022/12/31 01:09:16;;;;;;;18.05;7.78;;;10.50;99.90;;;;;;5097091;27;20557;-48
2022/12/31 01:11:42;;;;;;;16.75;7.55;;;10.50;99.90;;;;;;5126030;27;20047;-47
2022/12/31 01:14:14;;;;;;;19.90;8.25;;;10.70;99.90;;;;;;5116202;27;20090;-51
2022/12/31 01:16:47;;;;;;;19.50;8.32;;;10.70;99.90;;;;;;5124484;27;20047;-50
2022/12/31 01:19:16;;;;;;;15.38;8.63;;;10.70;99.90;;;;;;5128747;27;20516;-51
2022/12/31 01:21:43;;;;;;;11.60;7.32;;;10.60;99.90;;;;;;5127502;27;20194;-48
2022/12/31 01:24:09;;;;;;;17.90;7.60;;;10.50;99.90;;;;;;5115124;27;20132;-48
2022/12/31 01:26:36;;;;;;;15.40;8.55;;;10.60;99.90;;;;;;5127448;27;20081;-49
2022/12/31 01:29:02;;;;;;;15.48;8.38;;;10.70;99.90;;;;;;5132082;27;20858;-49
2022/12/31 01:31:28;;;;;;;15.43;8.18;;;10.80;99.90;;;;;;5135678;27;20133;-49
2022/12/31 01:33:54;;;;;;;17.75;9.07;;;10.70;99.90;;;;;;5102592;27;20055;-50
2022/12/31 01:36:23;;;;;;;14.73;9.07;;;10.80;99.90;;;;;;5121724;27;20082;-47
2022/12/31 01:38:49;;;;;;;14.77;8.05;;;10.70;99.90;;;;;;5115695;27;20086;-49
2022/12/31 01:41:20;;;;;;;12.88;7.60;;;10.80;99.90;;;;;;5122619;27;20100;-49
2022/12/31 01:44:21;;;;;;;13.60;7.78;;;10.60;99.90;;;;;;5120498;27;20209;-48
2022/12/31 01:46:57;;;;;;;14.93;7.20;;;10.70;99.90;;;;;;5130078;27;20055;-51
2022/12/31 01:49:40;;;;;;;13.80;7.32;;;10.80;99.90;;;;;;5127765;27;20126;-51
2022/12/31 01:52:14;;;;;;;12.90;6.80;;;10.80;99.90;;;;;;5115564;27;20486;-49
2022/12/31 01:54:43;;;;;;;16.88;6.90;;;10.70;99.90;;;;;;5127953;27;20147;-50
2022/12/31 01:57:10;;;;;;;14.80;6.82;;;10.80;99.90;;;;;;5127748;27;20369;-49
2022/12/31 01:59:36;;;;;;;14.48;6.88;;;10.80;99.90;;;;;;5118533;27;20084;-49
2022/12/31 02:02:03;;;;;;;9.70;5.05;;;10.80;99.90;;;;;;5117060;27;20504;-50
2022/12/31 02:04:29;;;;;;;14.25;5.10;;;10.70;99.90;;;;;;5101501;27;20042;-51
2022/12/31 02:07:03;;;;;;;13.60;5.40;;;10.60;99.90;;;;;;5135408;27;20069;-47
2022/12/31 02:09:30;;;;;;;13.02;4.35;;;10.60;99.90;;;;;;5135268;27;20086;-48
2022/12/31 02:11:56;;;;;;;13.82;4.45;;;10.60;99.90;;;;;;5135843;27;20582;-50
2022/12/31 02:14:32;;;;;;;13.63;4.55;;;10.70;99.90;;;;;;5134550;27;20050;-46
2022/12/31 02:17:32;;;;;;;10.40;3.60;;;10.70;99.90;;;;;;5136406;27;20508;-49
2022/12/31 02:20:36;;;;;;;10.70;3.92;;;10.70;99.90;;;;;;5130310;27;20512;-51
2022/12/31 02:23:20;;;;;;;;;;;10.60;99.90;;;;;;5034899;28;20056;-47
2022/12/31 02:26:25;;;;;;;11.02;3.05;;;10.70;99.90;;;;;;5016406;28;19925;-51
2022/12/31 02:28:51;;;;;;;10.60;2.78;;;10.70;99.90;;;;;;5001370;28;20053;-45
2022/12/31 02:31:31;;;;;;;8.77;3.00;;;10.40;99.90;;;;;;5017412;28;20188;-48
2022/12/31 02:34:16;;;;;;;8.48;2.25;;;10.60;99.90;;;;;;5016936;28;20075;-50
2022/12/31 02:36:46;;;;;;;10.18;2.92;;;10.40;99.90;;;;;;5020519;28;20045;-49
2022/12/31 02:39:13;;;;;;;11.60;2.42;;;10.40;99.90;;;;;;5034453;28;20053;-50
2022/12/31 02:41:50;;;;;;;11.10;2.53;;;10.60;99.90;;;;;;5020309;28;20385;-48
2022/12/31 02:44:36;;;;;;;8.35;2.50;;;10.50;99.90;;;;;;5016375;28;20498;-51
2022/12/31 02:47:07;;;;;;;7.30;1.98;;;10.50;99.90;;;;;;5013770;28;20159;-51
2022/12/31 02:49:52;;;;;;;11.30;2.67;;;10.50;99.90;;;;;;5027353;28;20242;-50
2022/12/31 02:52:28;;;;;;;7.43;1.83;;;10.30;99.90;;;;;;5023713;28;20080;-52
2022/12/31 02:55:28;;;;;;;8.00;1.83;;;10.50;99.90;;;;;;5032339;28;20489;-50
2022/12/31 02:58:09;;;;;;;5.72;1.80;;;10.40;99.90;;;;;;5107371;27;20067;-48
2022/12/31 03:03:27;;;;;;;5.78;1.52;;;10.30;99.90;;;;;;5115504;27;20062;-52
2022/12/31 03:05:55;;;;;;;8.10;1.63;;;10.20;99.90;;;;;;5127817;27;20038;-48
2022/12/31 03:08:25;;;;;;;7.78;1.58;;;10.30;99.90;;;;;;5126653;27;20490;-48
2022/12/31 03:10:51;;;;;;;6.13;1.55;;;10.30;99.90;;;;;;5134156;27;20497;-49
2022/12/31 03:13:17;;;;;;;8.45;1.45;;;10.30;99.90;;;;;;5128015;27;20054;-48
2022/12/31 03:15:42;;;;;;;7.32;1.45;;;10.20;99.90;;;;;;5122618;27;20459;-49
2022/12/31 03:18:11;;;;;;;10.00;1.60;;;10.20;99.90;;;;;;5137569;27;20111;-51
2022/12/31 03:23:35;;;;;;;7.50;1.65;;;10.20;99.90;;;;;;5116772;27;20082;-48
2022/12/31 03:26:02;;;;;;;7.20;1.42;;;10.10;99.90;;;;;;5116202;27;20043;-49
2022/12/31 03:28:29;;;;;;;5.68;1.42;;;10.20;99.90;;;;;;5130136;27;20051;-50
2022/12/31 03:30:57;;;;;;;7.18;1.70;;;10.20;99.90;;;;;;5118935;27;20043;-50
2022/12/31 03:33:24;;;;;;;6.90;1.60;;;10.10;99.90;;;;;;5117108;27;20086;-50
2022/12/31 03:35:51;;;;;;;10.63;1.90;;;10.10;99.90;;;;;;5123874;27;20047;-50
2022/12/31 03:38:18;;;;;;;9.00;1.70;;;10.20;99.90;;;;;;5124329;27;20493;-47
2022/12/31 03:40:49;;;;;;;5.50;1.55;;;10.10;99.90;;;;;;5129796;27;20089;-48
2022/12/31 03:43:18;;;;;;;7.70;1.50;;;10.20;99.90;;;;;;5122210;27;20051;-50
2022/12/31 03:45:46;;;;;;;5.72;1.60;;;10.20;99.90;;;;;;5125703;27;20080;-47
2022/12/31 03:48:12;;;;;;;12.38;1.92;;;10.20;99.90;;;;;;5120275;27;20454;-50
2022/12/31 03:50:38;;;;;;;10.90;2.25;;;10.10;99.90;;;;;;5126747;27;20250;-50
2022/12/31 03:53:03;;;;;;;9.02;1.92;;;10.10;99.90;;;;;;5123842;27;20047;-47
2022/12/31 03:55:29;;;;;;;10.70;2.40;;;10.10;99.90;;;;;;5131435;27;20046;-47
2022/12/31 03:57:55;;;;;;;9.90;2.75;;;10.20;99.90;;;;;;5104324;27;20065;-49
2022/12/31 04:00:21;;;;;;;12.02;2.72;;;10.10;99.90;;;;;;5126189;27;20425;-51
2022/12/31 04:02:48;;;;;;;5.13;1.65;;;10.30;99.90;;;;;;5121685;27;20050;-50
2022/12/31 04:05:14;;;;;;;8.23;2.50;;;10.10;99.90;;;;;;5134295;27;20389;-48
2022/12/31 04:07:41;;;;;;;13.35;2.50;;;10.10;99.90;;;;;;5121824;27;20047;-51
2022/12/31 04:10:09;;;;;;;7.25;2.20;;;10.20;99.90;;;;;;5127244;27;20047;-49
2022/12/31 04:12:35;;;;;;;9.63;2.75;;;10.30;99.90;;;;;;5118504;27;20057;-51
2022/12/31 04:15:00;;;;;;;11.10;2.40;;;10.20;99.90;;;;;;5126287;27;20058;-48
2022/12/31 04:17:26;;;;;;;8.05;2.25;;;10.10;99.90;;;;;;5134784;27;20054;-50
2022/12/31 04:19:52;;;;;;;9.35;2.30;;;10.30;99.90;;;;;;5125857;27;20051;-47
2022/12/31 04:22:18;;;;;;;11.98;2.53;;;10.10;99.90;;;;;;5097982;27;20074;-47
2022/12/31 04:24:43;;;;;;;10.43;2.10;;;10.10;99.90;;;;;;5115114;27;20046;-49
2022/12/31 04:27:10;;;;;;;12.00;2.58;;;10.20;99.90;;;;;;5129911;27;20595;-47
2022/12/31 04:29:36;;;;;;;11.93;2.25;;;10.30;99.90;;;;;;5119569;27;20055;-50
2022/12/31 04:32:03;;;;;;;8.35;2.60;;;10.20;99.90;;;;;;5118509;27;20057;-48
2022/12/31 04:34:30;;;;;;;9.65;2.60;;;10.20;99.90;;;;;;5135064;27;20340;-48
2022/12/31 04:36:55;;;;;;;10.57;2.55;;;10.30;99.90;;;;;;5122492;27;20520;-48
2022/12/31 04:39:21;;;;;;;9.13;2.92;;;10.40;99.90;;;;;;5126154;27;20100;-49
2022/12/31 04:41:47;;;;;;;14.32;3.58;;;10.30;99.90;;;;;;5113441;27;20070;-48
2022/12/31 04:44:13;;;;;;;10.52;3.10;;;10.40;99.90;;;;;;5116133;27;20088;-48
2022/12/31 04:46:38;;;;;;;15.25;4.60;;;10.30;99.90;;;;;;5132918;27;20042;-48
2022/12/31 04:49:04;;;;;;;16.83;4.63;;;10.40;99.90;;;;;;5136336;27;20043;-49
2022/12/31 04:51:30;;;;;;;19.30;5.03;;;10.20;99.90;;;;;;5122494;27;20054;-52
2022/12/31 04:53:56;;;;;;;13.10;4.88;;;10.20;99.90;;;;;;5124904;27;20106;-47
2022/12/31 04:56:23;;;;;;;15.35;4.95;;;10.20;99.90;;;;;;5122742;27;20419;-47
2022/12/31 04:58:48;;;;;;;15.13;4.82;;;10.20;99.90;;;;;;5116733;27;20050;-48
2022/12/31 05:01:14;;;;;;;12.55;4.68;;;10.40;99.90;;;;;;5128087;27;20055;-45
2022/12/31 05:03:40;;;;;;;11.95;4.45;;;10.30;99.90;;;;;;5123489;27;20607;-50
2022/12/31 05:06:11;;;;;;;12.10;4.80;;;10.40;99.90;;;;;;5130142;27;20085;-47
2022/12/31 05:08:37;;;;;;;11.55;4.57;;;10.20;99.90;;;;;;5134843;27;20043;-51
2022/12/31 05:11:03;;;;;;;9.43;5.20;;;10.40;99.90;;;;;;5133692;27;20046;-46
2022/12/31 05:13:28;;;;;;;13.25;6.10;;;10.50;99.90;;;;;;5124444;27;20175;-46
2022/12/31 05:15:54;;;;;;;8.85;5.00;;;10.30;99.90;;;;;;5109242;28;20047;-46
2022/12/31 05:18:20;;;;;;;13.45;5.82;;;10.50;99.90;;;;;;5126726;27;20058;-48
2022/12/31 05:20:46;;;;;;;13.63;7.15;;;10.40;99.90;;;;;;5130657;27;20619;-50
2022/12/31 05:23:14;;;;;;;13.77;7.90;;;10.50;99.90;;;;;;5115874;27;20047;-51
2022/12/31 05:25:42;;;;;;;13.63;8.00;;;10.60;99.90;;;;;;5123373;27;20047;-50
2022/12/31 05:28:07;;;;;;;11.52;8.38;;;10.50;99.90;;;;;;5125896;27;20051;-48
2022/12/31 05:30:33;;;;;;;13.27;10.02;;;10.60;99.90;;;;;;5132272;27;20233;-46
2022/12/31 05:32:59;;;;;;;14.35;9.75;;;10.30;99.90;;;;;;5125825;27;20043;-48
2022/12/31 05:35:24;;;;;;;15.60;10.43;;;10.30;99.90;;;;;;5102335;27;20043;-48
2022/12/31 05:37:50;;;;;;;16.38;10.13;;;10.40;99.90;;;;;;5131729;27;20179;-51
2022/12/31 05:40:16;;;;;;;13.85;10.50;;;10.30;99.90;;;;;;5127366;27;20047;-49
2022/12/31 05:42:42;;;;;;;15.93;10.82;;;10.60;99.90;;;;;;5119308;27;20055;-47
2022/12/31 05:45:12;;;;;;;14.32;10.95;;;10.30;99.90;;;;;;5109635;27;20039;-52
2022/12/31 05:47:41;;;;;;;15.20;11.40;;;10.40;99.90;;;;;;5127336;27;20046;-52
2022/12/31 05:50:11;;;;;;;17.13;11.07;;;10.30;99.90;;;;;;5103653;27;20055;-48
2022/12/31 05:52:37;;;;;;;13.95;10.30;;;10.60;99.90;;;;;;5124653;27;20386;-49
2022/12/31 05:55:04;;;;;;;13.63;9.98;;;10.30;99.90;;;;;;5137763;27;20078;-47
2022/12/31 05:57:30;;;;;;;19.73;9.32;;;10.50;99.90;;;;;;5127155;27;20186;-48
2022/12/31 05:59:55;;;;;;;13.90;9.48;;;10.60;99.90;;;;;;5128606;27;20785;-47
2022/12/31 06:02:22;;;;;;;17.92;9.93;;;10.60;99.90;;;;;;5119002;27;20268;-47
2022/12/31 06:04:48;;;;;;;13.65;8.50;;;10.30;99.90;;;;;;5131099;27;20139;-48
2022/12/31 06:07:13;;;;;;;14.07;8.45;;;10.60;99.90;;;;;;5122668;27;20039;-49
2022/12/31 06:09:39;;;;;;;10.00;7.03;;;10.30;99.90;;;;;;5134566;27;20047;-48
2022/12/31 06:12:06;;;;;;;13.45;8.52;;;10.30;99.90;;;;;;5135297;27;20085;-50
2022/12/31 06:14:31;;;;;;;8.73;6.75;;;10.20;99.90;;;;;;5130401;27;20055;-50
2022/12/31 06:16:57;;;;;;;10.52;7.10;;;10.20;99.90;;;;;;5135284;27;20038;-50
2022/12/31 06:19:23;;;;;;;10.38;6.78;;;10.40;99.90;;;;;;5135166;27;20485;-50
2022/12/31 06:21:50;;;;;;;12.43;6.88;;;10.10;99.90;;;;;;5125718;27;20039;-48
2022/12/31 06:24:15;;;;;;;13.73;7.55;;;10.40;99.90;;;;;;5123699;27;20047;-48
2022/12/31 06:26:41;;;;;;;11.30;6.15;;;10.30;99.90;;;;;;5139066;27;20043;-47
2022/12/31 06:29:07;;;;;;;12.85;5.80;;;10.30;99.90;;;;;;5135937;27;20481;-48
2022/12/31 06:31:33;;;;;;;7.80;5.57;;;10.10;99.90;;;;;;5139046;27;20137;-50
2022/12/31 06:33:59;;;;;;;9.05;5.65;;;10.20;99.90;;;;;;5130854;27;20051;-49
2022/12/31 06:36:25;;;;;;;10.23;5.60;;;10.20;99.90;;;;;;5129944;27;20078;-46
2022/12/31 06:38:51;;;;;;;11.23;5.68;;;10.10;99.90;;;;;;5125050;27;20046;-47
2022/12/31 06:41:17;;;;;;;11.77;5.68;;;10.30;99.90;;;;;;5106717;27;20404;-50
2022/12/31 06:43:44;;;;;;;12.43;5.68;;;10.20;99.90;;;;;;5121809;27;20554;-50
2022/12/31 06:46:12;;;;;;;9.60;6.18;;;10.20;99.90;;;;;;5131662;27;20079;-46
2022/12/31 06:48:38;;;;;;;17.77;7.07;;;9.90;99.90;;;;;;5131855;27;20162;-50
2022/12/31 06:51:06;;;;;;;19.10;7.18;;;10.20;99.90;;;;;;5131416;27;20469;-48
2022/12/31 06:53:32;;;;;;;9.27;6.85;;;10.00;99.90;;;;;;5130604;27;20082;-49
2022/12/31 06:56:03;;;;;;;9.93;6.55;;;9.90;99.90;;;;;;5108260;27;20366;-51
2022/12/31 06:58:29;;;;;;;11.55;6.47;;;10.20;99.90;;;;;;5120555;27;20066;-50
2022/12/31 07:01:18;;;;;;;10.82;6.22;;;10.00;99.90;;;;;;5118711;27;20472;-48
2022/12/31 07:04:21;;;;;;;9.00;6.07;;;9.90;99.90;;;;;;5135835;27;20066;-50
2022/12/31 07:06:55;;;;;;;7.35;5.68;;;10.10;99.90;;;;;;5118297;27;20051;-49
2022/12/31 07:09:28;;;;;;;11.57;7.18;;;10.20;99.90;;;;;;5131226;27;20047;-49
2022/12/31 07:12:02;;;;;;;8.93;7.03;;;10.10;99.90;;;;;;5129706;27;20133;-47
2022/12/31 07:14:36;;;;;;;11.50;6.93;;;10.00;99.90;;;;;;5134568;27;20051;-51
2022/12/31 07:17:20;;;;;;;10.20;7.43;;;10.00;99.90;;;;;;5125529;27;20520;-51
2022/12/31 07:19:49;;;;;;;6.18;5.25;;;10.20;99.90;;;;;;5119042;27;20051;-47
2022/12/31 07:22:16;;;;;;;6.20;4.65;;;10.20;99.90;;;;;;5118393;27;20042;-50
2022/12/31 07:24:45;;;;;;;7.28;5.28;;;9.90;99.90;;;;;;5107467;27;20167;-50
2022/12/31 07:27:34;;;;;;;7.43;5.38;;;10.00;99.90;;;;;;5138275;27;20042;-47
2022/12/31 07:30:18;;;;;;;6.85;5.72;;;10.20;99.90;;;;;;5134821;27;20137;-49
2022/12/31 07:32:59;;;;;;;;;;;9.90;99.90;;;;;;5126767;27;20516;-47
2022/12/31 07:35:46;;;;;;;10.07;7.03;;;10.00;99.90;;;;;;5118613;27;19927;-49
2022/12/31 07:38:23;;;;;;;8.45;7.55;;;10.10;99.90;;;;;;5130724;27;20493;-50
2022/12/31 07:40:52;;;;;;;9.00;8.10;;;10.10;99.90;;;;;;5126065;27;20113;-49
2022/12/31 07:43:30;;;;;;;10.98;9.15;;;10.00;99.90;;;;;;5111900;27;20043;-52
2022/12/31 07:46:23;;;;;;;12.23;10.32;;;10.10;99.90;;;;;;5128882;27;20404;-49
2022/12/31 07:48:48;;;;;;;15.70;12.07;;;10.20;99.90;;;;;;5099252;27;20043;-49
2022/12/31 07:51:15;;;;;;;11.90;10.68;;;10.00;99.90;;;;;;5132123;27;20038;-49
2022/12/31 07:53:40;;;;;;;9.85;8.75;;;10.30;99.90;;;;;;5136142;27;20991;-48
2022/12/31 07:56:08;;;;;;;10.55;8.88;;;10.00;99.90;;;;;;5123628;27;20064;-49
2022/12/31 07:58:58;;;;;;;9.38;8.20;;;10.10;99.90;;;;;;5109182;27;20050;-51
2022/12/31 08:01:40;;;;;;;8.52;7.60;;;10.10;99.90;;;;;;5118002;27;20412;-49
2022/12/31 08:04:36;;;;;;;6.97;6.28;;;10.40;99.90;;;;;;5129389;27;20399;-49
2022/12/31 08:07:12;;;;;;;7.10;6.45;;;10.20;99.90;;;;;;5129422;27;20057;-48
2022/12/31 08:09:44;;;;;;;6.70;5.80;;;10.20;99.90;;;;;;5123969;27;20508;-49
2022/12/31 08:12:09;;;;;;;7.97;7.18;;;10.30;99.90;;;;;;5119610;27;20491;-49
2022/12/31 08:14:47;;;;;;;7.50;6.80;;;10.30;99.90;;;;;;5128667;27;20043;-49
2022/12/31 08:17:15;;;;;;;8.25;6.32;;;10.40;99.90;;;;;;5133024;27;20053;-50
2022/12/31 08:19:41;;;;;;;8.15;7.35;;;10.70;99.90;;;;;;5137572;27;20142;-46
2022/12/31 08:22:25;;;;;;;7.80;7.00;;;10.40;99.90;;;;;;5102820;27;20046;-50
2022/12/31 08:25:11;;;;;;;;;;;10.70;99.90;;;;;;5096225;27;20453;-52
2022/12/31 08:27:59;;;;;;;9.20;8.30;;;10.60;99.90;;;;;;5058540;28;20218;-49
2022/12/31 08:30:37;;;;;;;11.30;8.25;;;10.50;99.90;;;;;;5058191;28;20059;-50
2022/12/31 08:33:23;;;;;;;9.15;8.25;;;10.80;99.90;;;;;;5059959;28;20143;-52
2022/12/31 08:35:51;;;;;;;9.32;8.40;;;10.50;99.90;;;;;;5060361;28;20913;-47
2022/12/31 08:38:42;;;;;;;10.07;8.88;;;10.80;99.90;;;;;;5053823;28;20550;-49
2022/12/31 08:41:19;;;;;;;11.80;9.63;;;10.80;99.90;;;;;;5054152;28;20085;-52
2022/12/31 08:44:16;;;;;;;10.65;9.05;;;11.00;99.90;;;;;;5063646;28;20044;-51
2022/12/31 08:46:55;;;;;;;8.77;7.88;;;11.00;99.90;;;;;;5001478;28;20511;-52
2022/12/31 08:49:23;;;;;;;8.77;7.97;;;11.20;99.90;;;;;;5018948;28;20080;-49
2022/12/31 08:51:49;;;;;;;9.15;8.27;;;11.20;99.90;;;;;;5017322;28;20065;-47
2022/12/31 08:54:15;;;;;;;8.45;7.60;;;11.30;99.90;;;;;;5000555;28;20056;-49
2022/12/31 08:57:13;;;;;;;9.82;7.93;;;11.20;99.90;;;;;;5024646;28;21422;-48
2022/12/31 09:00:02;;;;;;;10.00;6.85;;;11.50;99.90;;;;;;5014300;28;20076;-51
2022/12/31 09:02:40;;;;;;;9.38;6.85;;;11.60;99.90;;;;;;5018186;28;20194;-50
2022/12/31 09:05:13;;;;;;;8.38;6.93;;;11.70;99.90;;;;;;5030387;28;20095;-50
2022/12/31 09:08:12;;;;;;;8.85;5.88;;;11.60;99.90;;;;;;5045534;28;20537;-49
2022/12/31 09:10:50;;;;;;;8.98;5.45;;;11.50;99.90;;;;;;4987019;28;20515;-48
2022/12/31 09:13:27;;;;;;;7.05;4.72;;;11.50;99.90;;;;;;4976433;28;20192;-48
2022/12/31 09:16:17;;;;;;;7.35;4.75;;;11.50;99.90;;;;;;4974236;28;20064;-48
2022/12/31 09:18:42;;;;;;;9.10;4.20;;;11.70;99.90;;;;;;4986798;28;20626;-49
2022/12/31 09:21:13;;;;;;;5.75;4.00;;;11.50;99.90;;;;;;4990941;28;20054;-49
2022/12/31 09:23:39;;;;;;;7.70;3.35;;;11.60;99.90;;;;;;5014914;28;20063;-51
2022/12/31 09:26:27;;;;;;;6.90;3.42;;;11.50;99.90;;;;;;5018550;28;20044;-50
2022/12/31 09:29:03;;;;;;;4.72;2.90;;;11.80;99.90;;;;;;5020605;28;20143;-52
2022/12/31 09:31:46;;;;;;;6.80;2.80;;;11.80;99.90;;;;;;5032755;28;20126;-51
2022/12/31 09:34:23;;;;;;;5.55;2.28;;;11.70;99.90;;;;;;5013565;28;20553;-52
2022/12/31 09:36:55;;;;;;;4.32;1.90;;;11.60;99.90;;;;;;5022910;28;20579;-45
2022/12/31 09:39:38;;;;;;;3.55;2.15;;;11.80;99.90;;;;;;5025595;28;20463;-48
2022/12/31 09:42:30;;;;;;;3.08;1.85;;;11.70;99.90;;;;;;5031550;28;20053;-50
2022/12/31 09:45:13;;;;;;;2.40;1.27;;;12.00;99.90;;;;;;4994726;28;20089;-49
2022/12/31 09:48:15;;;;;;;4.35;1.95;;;11.80;99.90;;;;;;5072669;28;20511;-47
2022/12/31 09:51:09;;;;;;;5.50;3.28;;;12.00;99.90;;;;;;5044894;28;20068;-48
2022/12/31 09:54:12;;;;;;;8.13;2.70;;;11.80;99.90;;;;;;5041451;28;20574;-48
2022/12/31 09:56:46;;;;;;;6.20;2.35;;;12.10;99.90;;;;;;5033100;28;20503;-52
2022/12/31 09:59:29;;;;;;;5.05;1.45;;;12.00;99.90;;;;;;5024805;28;20496;-48
2022/12/31 10:02:22;;;;;;;8.38;3.55;;;12.00;99.90;;;;;;5055438;28;20438;-46
2022/12/31 10:04:56;;;;;;;7.97;2.67;;;12.10;99.90;;;;;;5040671;28;20052;-52
2022/12/31 10:08:01;;;;;;;9.90;3.30;;;12.10;99.90;;;;;;5054842;28;20048;-49
2022/12/31 10:10:33;;;;;;;;;;;11.90;99.90;;;;;;5034577;28;20503;-52
2022/12/31 10:13:23;;;;;;;9.52;2.50;;;12.10;99.90;;;;;;5022808;28;20395;-50
2022/12/31 10:16:25;;;;;;;11.27;3.13;;;12.10;99.90;;;;;;5033809;28;20060;-49
2022/12/31 10:19:11;;;;;;;8.35;1.70;;;11.90;99.90;;;;;;5034332;28;20110;-47
2022/12/31 10:22:13;;;;;;;7.75;3.00;;;11.90;99.90;;;;;;5041706;28;20061;-52
2022/12/31 10:24:44;;;;;;;10.73;2.20;;;12.00;99.90;;;;;;5052989;28;20485;-49
2022/12/31 10:27:47;;;;;;;17.25;3.38;;;12.00;99.90;;;;;;5054228;28;20539;-51
2022/12/31 10:30:17;;;;;;;11.93;2.83;;;12.10;99.90;;;;;;5050683;28;20052;-47
2022/12/31 10:32:58;;;;;;;7.03;2.22;;;12.00;99.90;;;;;;5054113;28;20388;-50
2022/12/31 10:35:29;;;;;;;9.55;2.80;;;12.10;99.90;;;;;;5052656;28;20091;-47
2022/12/31 10:38:18;;;;;;;12.10;2.97;;;12.20;99.90;;;;;;5053123;28;20044;-49
2022/12/31 10:40:56;;;;;;;9.98;2.83;;;12.20;99.90;;;;;;5070919;27;20077;-52
2022/12/31 10:43:42;;;;;;;14.20;3.40;;;12.20;99.90;;;;;;5127735;27;20046;-49
2022/12/31 10:46:33;;;;;;;8.60;2.53;;;12.20;99.90;;;;;;5138007;27;20085;-47
2022/12/31 10:49:20;;;;;;;13.68;2.60;;;12.30;99.90;;;;;;5108223;27;20062;-50
2022/12/31 10:52:08;;;;;;;13.65;2.92;;;12.30;99.90;;;;;;5134857;27;20054;-47
2022/12/31 10:55:02;;;;;;;13.63;2.70;;;12.30;99.90;;;;;;5104144;27;20067;-49
2022/12/31 10:57:55;;;;;;;14.40;2.60;;;12.30;99.90;;;;;;5121158;27;20400;-49
2022/12/31 11:00:22;;;;;;;17.35;3.47;;;12.30;99.90;;;;;;5127555;27;20671;-45
2022/12/31 11:03:06;;;;;;;13.00;3.70;;;12.30;99.90;;;;;;5133501;27;20463;-48
2022/12/31 11:05:37;;;;;;;;;;;12.30;99.90;;;;;;5130198;27;20065;-49
2022/12/31 11:08:34;;;;;;;13.25;3.95;;;12.40;99.90;;;;;;5124859;27;19929;-48
2022/12/31 11:11:28;;;;;;;16.85;3.25;;;12.40;99.90;;;;;;5027535;28;20061;-47
2022/12/31 11:14:24;;;;;;;12.43;2.53;;;12.50;99.90;;;;;;5014145;28;20143;-50
2022/12/31 11:17:15;;;;;;;10.95;2.80;;;12.40;99.90;;;;;;5019833;28;20049;-51
2022/12/31 11:19:59;;;;;;;8.93;3.13;;;12.60;99.90;;;;;;5023199;28;20174;-49
2022/12/31 11:22:28;;;;;;;7.53;2.30;;;12.60;99.90;;;;;;5018248;28;20048;-47
2022/12/31 11:25:14;;;;;;;7.45;1.95;;;12.70;99.90;;;;;;5031215;28;20091;-46
2022/12/31 11:28:05;;;;;;;9.38;2.67;;;12.60;99.90;;;;;;5003095;28;20100;-47
2022/12/31 11:30:52;;;;;;;10.27;2.53;;;12.60;99.90;;;;;;5017993;28;20049;-49
2022/12/31 11:33:42;;;;;;;10.93;2.95;;;12.50;99.90;;;;;;5023706;28;20530;-50
2022/12/31 11:36:10;;;;;;;11.07;2.80;;;12.50;99.90;;;;;;5020464;28;20568;-51
2022/12/31 11:39:01;;;;;;;6.75;2.33;;;12.50;99.90;;;;;;5027036;28;20481;-48
2022/12/31 11:41:54;;;;;;;7.35;2.17;;;12.60;99.90;;;;;;5024559;28;20121;-49
2022/12/31 11:44:20;;;;;;;10.98;2.75;;;12.70;99.90;;;;;;4917025;29;20067;-51
2022/12/31 11:47:03;;;;;;;10.38;3.15;;;12.50;99.90;;;;;;4949462;28;20822;-48
2022/12/31 11:49:47;;;;;;;;;;;12.60;99.90;;;;;;5015056;28;20139;-47
2022/12/31 11:52:41;;;;;;;10.15;3.40;;;12.50;99.90;;;;;;5015271;28;20034;-50
2022/12/31 11:55:16;;;;;;;10.40;2.70;;;12.40;99.90;;;;;;5012398;28;20459;-51
2022/12/31 11:57:50;;;;;;;12.15;3.47;;;12.60;99.90;;;;;;5015306;28;20056;-49
2022/12/31 12:00:19;;;;;;;;;;;12.40;99.90;;;;;;5019067;28;20554;-51
2022/12/31 12:03:02;;;;;;;12.93;3.20;;;12.50;99.90;;;;;;5028159;28;20342;-55
2022/12/31 12:05:29;;;;;;;15.83;3.73;;;12.60;99.90;;;;;;5013959;28;20061;-48
2022/12/31 12:07:55;;;;;;;12.20;2.75;;;12.40;99.90;;;;;;5008656;28;20061;-49
2022/12/31 12:10:25;;;;;;;15.30;3.65;;;12.50;99.90;;;;;;5014684;28;20053;-48
2022/12/31 12:12:53;;;;;;;17.50;4.45;;;12.50;99.90;;;;;;5024425;28;20487;-46
2022/12/31 12:15:34;;;;;;;15.35;3.83;;;12.40;99.90;;;;;;5019624;28;20451;-49
2022/12/31 12:18:12;;;;;;;17.58;3.65;;;12.50;99.90;;;;;;5029930;28;20063;-47
2022/12/31 12:20:40;;;;;;;12.82;3.65;;;12.40;99.90;;;;;;5029072;27;20152;-51
2022/12/31 12:23:25;;;;;;;13.55;3.17;;;12.50;99.90;;;;;;5117453;27;20075;-50
2022/12/31 12:25:51;;;;;;;14.13;4.22;;;12.30;99.90;;;;;;5136250;27;20049;-50
2022/12/31 12:28:17;;;;;;;9.15;2.38;;;12.50;99.90;;;;;;5124501;27;20101;-52
2022/12/31 12:30:44;;;;;;;10.38;2.60;;;12.30;99.90;;;;;;5119277;27;20047;-47
2022/12/31 12:33:17;;;;;;;13.60;3.88;;;12.40;99.90;;;;;;5128245;27;20065;-48
2022/12/31 12:35:43;;;;;;;14.25;3.08;;;12.50;99.90;;;;;;5097582;27;20331;-49
2022/12/31 12:38:18;;;;;;;13.73;3.53;;;12.40;99.90;;;;;;5130262;27;20054;-48
2022/12/31 12:40:58;;;;;;;14.27;3.55;;;12.40;99.90;;;;;;5129016;27;20050;-50
2022/12/31 12:43:31;;;;;;;12.35;3.17;;;12.40;99.90;;;;;;5126632;27;20138;-49
2022/12/31 12:46:03;;;;;;;15.38;3.95;;;12.30;99.90;;;;;;5118406;27;20213;-50
2022/12/31 12:48:45;;;;;;;10.32;3.05;;;12.30;99.90;;;;;;5136512;27;20058;-49
2022/12/31 12:51:29;;;;;;;12.70;3.22;;;12.40;99.90;;;;;;5122926;27;20092;-54
2022/12/31 12:54:17;;;;;;;16.00;3.88;;;12.40;99.90;;;;;;5136275;27;20046;-50
2022/12/31 12:57:02;;;;;;;16.02;4.18;;;12.30;99.90;;;;;;5123767;27;20407;-49
2022/12/31 12:59:43;;;;;;;12.35;3.10;;;12.30;99.90;;;;;;5118477;27;20923;-48
2022/12/31 13:02:30;;;;;;;10.30;2.95;;;12.40;99.90;;;;;;5118050;27;20096;-51
2022/12/31 13:05:31;;;;;;;16.00;4.63;;;12.20;99.90;;;;;;5096026;27;20455;-48
2022/12/31 13:08:21;;;;;;;11.85;3.35;;;12.30;99.90;;;;;;5117118;27;20439;-47
2022/12/31 13:11:14;;;;;;;13.73;2.88;;;12.20;99.90;;;;;;5134148;27;20039;-51
2022/12/31 13:13:57;;;;;;;14.25;3.10;;;12.10;99.90;;;;;;5114320;27;20065;-48
2022/12/31 13:16:49;;;;;;;17.52;4.18;;;12.20;99.90;;;;;;5123164;27;20488;-49
2022/12/31 13:19:38;;;;;;;16.95;4.13;;;12.00;99.90;;;;;;5131165;27;20042;-45
2022/12/31 13:22:07;;;;;;;16.35;4.25;;;12.00;99.90;;;;;;5116492;27;20081;-49
2022/12/31 13:24:58;;;;;;;14.30;3.35;;;12.00;99.90;;;;;;5122199;27;20058;-48